Hauptseite
METAR-TAF:

METAR-TAF

Flughäfen :

Flughafen Metz-Nancy-Lothringen

Metz-Nancy-Lorraine, Frankreich

Breite: 48-59N, Länge: 006-15E, Höhe: 264 m

Beobachtung

Neuester Wetterbericht von vor 37 Minuten, um 06:30 UTC
Wind 4 kt aus Nord/Nordost
Temperatur 20°C
Luftfeuchtigkeit 64%
Luftdruck 1019 hPa
Sichtweite 10 km oder mehr
keine Wolken unter 1500 m und keine Kumulonimbus oder Gewitterwolken

METAR: LFJL 180630Z AUTO 03004KT CAVOK 20/13 Q1019 NOSIG

Zeit: 09:07 (07:07 UTC)

Prognose

Neuester Wetterbericht von vor 2 Stunden und 7 Minuten, um 05:00 UTC
Gültige Prognose vom 18 um 06 UTC bis 19 um 06 UTC
Wind 5 kt aus Nord/Nordost
Sichtweite 10 km oder mehr
keine Wolken unter 1500 m und keine Kumulonimbus oder Gewitterwolken

TAF: LFJL 180500Z 1806/1906 02005KT CAVOK

Wetterbeobachtungen und Prognosen von mehr als 4000 Flughäfen (METAR und TAF Bericht).

Die verfügbaren Stationen werden durch gelbe und rote Markierungen auf der Karte dargestellt.

Führen Sie die Maus auf sie, um den Namen der Station zu sehen.

Darauf klicken, um die Beobachtung von Wetterbeobachtungen und Prognosen zu sehen.

Um die Karte zu ändern : klicken Sie auf den grünen Tasten mit einem schwarzen Kreuz Zum Vergrößern, auf den grünen Button mit einem Gedankenstrich zu verkleinern, oder auf die grünen Pfeile für benachbarte Karten.


METAR-TAF: